sensor_id;sensor_type;location;lat;lon;timestamp;pressure;altitude;pressure_sealevel;temperature;humidity
45813;BME280;31519;45.408;10.962;2023-03-19T00:02:14;101032.22;;;13.74;60.82
45813;BME280;31519;45.408;10.962;2023-03-19T00:04:45;101023.81;;;13.59;61.45
45813;BME280;31519;45.408;10.962;2023-03-19T00:07:14;101020.56;;;13.79;60.66
45813;BME280;31519;45.408;10.962;2023-03-19T00:09:43;101022.75;;;13.86;60.88
45813;BME280;31519;45.408;10.962;2023-03-19T00:12:11;101016.78;;;13.89;60.49
45813;BME280;31519;45.408;10.962;2023-03-19T00:14:38;101018.19;;;13.86;60.96
45813;BME280;31519;45.408;10.962;2023-03-19T00:17:07;101023.06;;;13.75;61.08
45813;BME280;31519;45.408;10.962;2023-03-19T00:19:35;101019.75;;;13.70;61.20
45813;BME280;31519;45.408;10.962;2023-03-19T00:22:03;101013.13;;;13.67;61.53
45813;BME280;31519;45.408;10.962;2023-03-19T00:24:31;101014.69;;;13.68;61.16
45813;BME280;31519;45.408;10.962;2023-03-19T00:26:59;101016.63;;;13.94;60.88
45813;BME280;31519;45.408;10.962;2023-03-19T00:29:27;101020.47;;;13.53;62.01
45813;BME280;31519;45.408;10.962;2023-03-19T00:31:54;101021.28;;;13.62;61.72
45813;BME280;31519;45.408;10.962;2023-03-19T00:34:22;101020.34;;;13.58;61.97
45813;BME280;31519;45.408;10.962;2023-03-19T00:36:50;101017.66;;;13.50;61.94
45813;BME280;31519;45.408;10.962;2023-03-19T00:39:18;101014.34;;;13.61;61.69
45813;BME280;31519;45.408;10.962;2023-03-19T00:41:48;101010.25;;;13.55;62.04
45813;BME280;31519;45.408;10.962;2023-03-19T00:44:16;101011.34;;;13.46;62.66
45813;BME280;31519;45.408;10.962;2023-03-19T00:46:45;101008.53;;;13.59;62.13
45813;BME280;31519;45.408;10.962;2023-03-19T00:49:13;101014.00;;;13.46;62.46
45813;BME280;31519;45.408;10.962;2023-03-19T00:51:41;101026.31;;;13.55;62.51
45813;BME280;31519;45.408;10.962;2023-03-19T00:54:11;101022.38;;;13.53;62.49
45813;BME280;31519;45.408;10.962;2023-03-19T00:56:39;101016.72;;;13.15;63.95
45813;BME280;31519;45.408;10.962;2023-03-19T00:59:07;101020.66;;;13.17;63.88
45813;BME280;31519;45.408;10.962;2023-03-19T01:01:35;101013.00;;;13.02;64.54
45813;BME280;31519;45.408;10.962;2023-03-19T01:04:03;101008.22;;;13.13;64.44
45813;BME280;31519;45.408;10.962;2023-03-19T01:06:31;100996.84;;;13.38;63.65
45813;BME280;31519;45.408;10.962;2023-03-19T01:08:58;100991.28;;;13.35;63.43
45813;BME280;31519;45.408;10.962;2023-03-19T01:11:26;100985.66;;;13.45;62.93
45813;BME280;31519;45.408;10.962;2023-03-19T01:13:54;100977.50;;;13.50;62.98
45813;BME280;31519;45.408;10.962;2023-03-19T01:16:22;100983.34;;;13.52;62.24
45813;BME280;31519;45.408;10.962;2023-03-19T01:18:49;100975.59;;;13.42;62.23
45813;BME280;31519;45.408;10.962;2023-03-19T01:21:17;100978.44;;;13.54;61.98
45813;BME280;31519;45.408;10.962;2023-03-19T01:23:47;100991.50;;;13.47;62.23
45813;BME280;31519;45.408;10.962;2023-03-19T01:26:15;100991.75;;;13.28;62.15
45813;BME280;31519;45.408;10.962;2023-03-19T01:28:43;100987.72;;;13.08;62.94
45813;BME280;31519;45.408;10.962;2023-03-19T01:31:12;100983.41;;;12.99;62.75
45813;BME280;31519;45.408;10.962;2023-03-19T01:34:06;100989.38;;;13.26;62.48
45813;BME280;31519;45.408;10.962;2023-03-19T01:36:48;100985.66;;;13.05;62.77
45813;BME280;31519;45.408;10.962;2023-03-19T01:39:20;100984.09;;;13.04;63.34
45813;BME280;31519;45.408;10.962;2023-03-19T01:41:49;100965.41;;;13.13;62.70
45813;BME280;31519;45.408;10.962;2023-03-19T01:44:35;100959.09;;;13.09;62.74
45813;BME280;31519;45.408;10.962;2023-03-19T01:47:34;100956.34;;;13.22;62.21
45813;BME280;31519;45.408;10.962;2023-03-19T01:50:24;100950.84;;;13.27;62.32
45813;BME280;31519;45.408;10.962;2023-03-19T01:53:22;100954.09;;;13.16;62.47
45813;BME280;31519;45.408;10.962;2023-03-19T01:56:02;100965.81;;;13.06;62.77
45813;BME280;31519;45.408;10.962;2023-03-19T01:58:52;100968.19;;;13.08;62.59
45813;BME280;31519;45.408;10.962;2023-03-19T02:02:05;100965.59;;;12.85;63.58
45813;BME280;31519;45.408;10.962;2023-03-19T02:04:37;100959.44;;;13.16;62.49
45813;BME280;31519;45.408;10.962;2023-03-19T02:07:05;100954.59;;;13.18;62.17
45813;BME280;31519;45.408;10.962;2023-03-19T02:09:34;100955.25;;;13.32;61.99
45813;BME280;31519;45.408;10.962;2023-03-19T02:12:03;100951.28;;;13.21;61.76
45813;BME280;31519;45.408;10.962;2023-03-19T02:14:31;100958.00;;;13.10;62.08
45813;BME280;31519;45.408;10.962;2023-03-19T02:16:58;100962.50;;;13.31;61.21
45813;BME280;31519;45.408;10.962;2023-03-19T02:19:38;100964.00;;;13.15;61.78
45813;BME280;31519;45.408;10.962;2023-03-19T02:22:08;100956.91;;;13.11;61.96
45813;BME280;31519;45.408;10.962;2023-03-19T02:24:40;100955.75;;;13.03;62.02
45813;BME280;31519;45.408;10.962;2023-03-19T02:27:14;100952.53;;;12.84;62.66
45813;BME280;31519;45.408;10.962;2023-03-19T02:29:46;100953.88;;;13.04;62.29
45813;BME280;31519;45.408;10.962;2023-03-19T02:32:16;100948.66;;;12.99;62.31
45813;BME280;31519;45.408;10.962;2023-03-19T02:34:44;100961.06;;;12.95;62.88
45813;BME280;31519;45.408;10.962;2023-03-19T02:37:27;100970.34;;;13.19;62.51
45813;BME280;31519;45.408;10.962;2023-03-19T02:40:04;100963.91;;;12.98;63.75
45813;BME280;31519;45.408;10.962;2023-03-19T02:42:34;100971.97;;;12.76;64.49
45813;BME280;31519;45.408;10.962;2023-03-19T02:45:02;100970.03;;;12.99;64.44
45813;BME280;31519;45.408;10.962;2023-03-19T02:47:30;100963.78;;;12.72;65.45
45813;BME280;31519;45.408;10.962;2023-03-19T02:49:58;100965.25;;;12.78;66.00
45813;BME280;31519;45.408;10.962;2023-03-19T02:52:26;100967.50;;;12.63;66.84
45813;BME280;31519;45.408;10.962;2023-03-19T02:54:54;100970.91;;;12.77;66.76
45813;BME280;31519;45.408;10.962;2023-03-19T02:57:23;100967.94;;;12.56;67.68
45813;BME280;31519;45.408;10.962;2023-03-19T02:59:51;100968.75;;;12.87;66.60
45813;BME280;31519;45.408;10.962;2023-03-19T03:02:19;100974.66;;;12.76;67.26
45813;BME280;31519;45.408;10.962;2023-03-19T03:04:48;100965.66;;;12.72;67.73
45813;BME280;31519;45.408;10.962;2023-03-19T03:07:15;100974.53;;;12.81;67.40
45813;BME280;31519;45.408;10.962;2023-03-19T03:09:44;100973.53;;;13.08;66.64
45813;BME280;31519;45.408;10.962;2023-03-19T03:12:12;100966.53;;;13.20;66.18
45813;BME280;31519;45.408;10.962;2023-03-19T03:14:40;100970.00;;;12.90;66.58
45813;BME280;31519;45.408;10.962;2023-03-19T03:17:08;100973.13;;;12.83;67.47
45813;BME280;31519;45.408;10.962;2023-03-19T03:19:36;100970.53;;;12.70;67.67
45813;BME280;31519;45.408;10.962;2023-03-19T03:22:04;100974.56;;;12.89;67.29
45813;BME280;31519;45.408;10.962;2023-03-19T03:24:32;100968.38;;;12.80;67.73
45813;BME280;31519;45.408;10.962;2023-03-19T03:27:00;100965.25;;;12.78;67.61
45813;BME280;31519;45.408;10.962;2023-03-19T03:29:28;100970.56;;;13.09;67.01
45813;BME280;31519;45.408;10.962;2023-03-19T03:31:56;100965.50;;;12.99;66.91
45813;BME280;31519;45.408;10.962;2023-03-19T03:34:24;100978.00;;;12.81;67.64
45813;BME280;31519;45.408;10.962;2023-03-19T03:36:52;100981.22;;;12.70;68.54
45813;BME280;31519;45.408;10.962;2023-03-19T03:39:20;100982.50;;;12.72;68.53
45813;BME280;31519;45.408;10.962;2023-03-19T03:41:48;100979.25;;;12.84;67.96
45813;BME280;31519;45.408;10.962;2023-03-19T03:44:16;100977.41;;;12.93;67.57
45813;BME280;31519;45.408;10.962;2023-03-19T03:46:44;100980.47;;;13.09;66.70
45813;BME280;31519;45.408;10.962;2023-03-19T03:49:13;100982.78;;;13.02;66.94
45813;BME280;31519;45.408;10.962;2023-03-19T03:51:41;100978.53;;;12.92;66.72
45813;BME280;31519;45.408;10.962;2023-03-19T03:54:09;100979.00;;;12.94;67.06
45813;BME280;31519;45.408;10.962;2023-03-19T03:56:37;100979.28;;;12.62;68.22
45813;BME280;31519;45.408;10.962;2023-03-19T03:59:05;100983.25;;;12.64;68.45
45813;BME280;31519;45.408;10.962;2023-03-19T04:01:34;100990.47;;;12.95;67.85
45813;BME280;31519;45.408;10.962;2023-03-19T04:04:02;100987.72;;;12.77;68.45
45813;BME280;31519;45.408;10.962;2023-03-19T04:06:30;100980.13;;;12.71;68.46
45813;BME280;31519;45.408;10.962;2023-03-19T04:09:15;100997.41;;;12.65;68.81
45813;BME280;31519;45.408;10.962;2023-03-19T04:11:43;100994.72;;;12.65;68.47
45813;BME280;31519;45.408;10.962;2023-03-19T04:14:11;100998.66;;;12.67;68.29
45813;BME280;31519;45.408;10.962;2023-03-19T04:16:39;100995.00;;;12.85;67.51
45813;BME280;31519;45.408;10.962;2023-03-19T04:19:09;101009.09;;;13.08;66.73
45813;BME280;31519;45.408;10.962;2023-03-19T04:21:36;101006.25;;;13.05;66.92
45813;BME280;31519;45.408;10.962;2023-03-19T04:24:05;101007.94;;;12.92;67.34
45813;BME280;31519;45.408;10.962;2023-03-19T04:26:32;101009.03;;;12.91;67.34
45813;BME280;31519;45.408;10.962;2023-03-19T04:29:00;101007.28;;;12.86;66.86
45813;BME280;31519;45.408;10.962;2023-03-19T04:31:28;101022.28;;;12.29;69.32
45813;BME280;31519;45.408;10.962;2023-03-19T04:33:57;101025.78;;;12.16;70.39
45813;BME280;31519;45.408;10.962;2023-03-19T04:36:25;101030.72;;;11.87;71.48
45813;BME280;31519;45.408;10.962;2023-03-19T04:38:53;101034.00;;;12.06;71.13
45813;BME280;31519;45.408;10.962;2023-03-19T04:41:21;101035.00;;;11.96;71.02
45813;BME280;31519;45.408;10.962;2023-03-19T04:44:12;101038.16;;;12.12;70.72
45813;BME280;31519;45.408;10.962;2023-03-19T04:46:41;101039.13;;;12.16;70.60
45813;BME280;31519;45.408;10.962;2023-03-19T04:49:13;101034.94;;;11.88;71.33
45813;BME280;31519;45.408;10.962;2023-03-19T04:51:42;101040.06;;;11.98;71.52
45813;BME280;31519;45.408;10.962;2023-03-19T04:54:10;101044.53;;;11.89;72.45
45813;BME280;31519;45.408;10.962;2023-03-19T04:56:38;101049.13;;;12.11;71.70
45813;BME280;31519;45.408;10.962;2023-03-19T04:59:06;101050.00;;;12.20;71.69
45813;BME280;31519;45.408;10.962;2023-03-19T05:01:34;101054.78;;;12.09;72.31
45813;BME280;31519;45.408;10.962;2023-03-19T05:04:06;101061.13;;;12.13;72.25
45813;BME280;31519;45.408;10.962;2023-03-19T05:06:36;101061.06;;;12.27;71.80
45813;BME280;31519;45.408;10.962;2023-03-19T05:09:05;101061.13;;;12.13;72.26
45813;BME280;31519;45.408;10.962;2023-03-19T05:11:34;101063.38;;;12.42;71.46
45813;BME280;31519;45.408;10.962;2023-03-19T05:14:04;101064.56;;;12.50;71.02
45813;BME280;31519;45.408;10.962;2023-03-19T05:16:53;101059.63;;;12.43;70.97
45813;BME280;31519;45.408;10.962;2023-03-19T05:19:21;101053.03;;;12.40;71.28
45813;BME280;31519;45.408;10.962;2023-03-19T05:21:49;101056.63;;;12.58;70.98
45813;BME280;31519;45.408;10.962;2023-03-19T05:24:23;101061.72;;;12.68;71.46
45813;BME280;31519;45.408;10.962;2023-03-19T05:26:52;101068.88;;;12.59;71.33
45813;BME280;31519;45.408;10.962;2023-03-19T05:29:41;101072.41;;;12.46;72.27
45813;BME280;31519;45.408;10.962;2023-03-19T05:32:32;101069.13;;;12.49;72.13
45813;BME280;31519;45.408;10.962;2023-03-19T05:35:03;101075.81;;;12.82;70.85
45813;BME280;31519;45.408;10.962;2023-03-19T05:37:34;101068.94;;;12.68;71.24
45813;BME280;31519;45.408;10.962;2023-03-19T05:40:04;101076.47;;;12.88;71.03
45813;BME280;31519;45.408;10.962;2023-03-19T05:42:33;101081.41;;;12.95;70.90
45813;BME280;31519;45.408;10.962;2023-03-19T05:45:02;101092.22;;;12.89;71.02
45813;BME280;31519;45.408;10.962;2023-03-19T05:47:45;101083.28;;;13.16;69.63
45813;BME280;31519;45.408;10.962;2023-03-19T05:50:14;101093.22;;;13.24;69.00
45813;BME280;31519;45.408;10.962;2023-03-19T05:52:57;101078.72;;;13.17;69.63
45813;BME280;31519;45.408;10.962;2023-03-19T05:55:25;101090.44;;;13.07;69.14
45813;BME280;31519;45.408;10.962;2023-03-19T05:58:01;101084.25;;;12.98;69.48
45813;BME280;31519;45.408;10.962;2023-03-19T06:00:30;101087.03;;;13.15;68.98
45813;BME280;31519;45.408;10.962;2023-03-19T06:02:58;101085.22;;;13.02;69.29
45813;BME280;31519;45.408;10.962;2023-03-19T06:05:35;101082.94;;;12.87;69.55
45813;BME280;31519;45.408;10.962;2023-03-19T06:08:23;101091.59;;;12.70;70.64
45813;BME280;31519;45.408;10.962;2023-03-19T06:11:00;101087.28;;;13.05;69.47
45813;BME280;31519;45.408;10.962;2023-03-19T06:13:27;101080.06;;;12.83;70.08
45813;BME280;31519;45.408;10.962;2023-03-19T06:15:59;101096.72;;;12.80;70.12
45813;BME280;31519;45.408;10.962;2023-03-19T06:18:31;101095.06;;;12.93;70.29
45813;BME280;31519;45.408;10.962;2023-03-19T06:21:05;101109.41;;;12.97;69.58
45813;BME280;31519;45.408;10.962;2023-03-19T06:23:33;101117.09;;;13.12;68.99
45813;BME280;31519;45.408;10.962;2023-03-19T06:26:04;101104.81;;;13.11;69.42
45813;BME280;31519;45.408;10.962;2023-03-19T06:28:40;101108.44;;;13.15;68.86
45813;BME280;31519;45.408;10.962;2023-03-19T06:31:09;101103.00;;;13.29;68.77
45813;BME280;31519;45.408;10.962;2023-03-19T06:33:59;101102.66;;;13.22;68.51
45813;BME280;31519;45.408;10.962;2023-03-19T06:36:37;101111.28;;;13.41;68.38
45813;BME280;31519;45.408;10.962;2023-03-19T06:39:07;101114.81;;;13.06;69.43
45813;BME280;31519;45.408;10.962;2023-03-19T06:41:36;101112.44;;;13.04;69.40
45813;BME280;31519;45.408;10.962;2023-03-19T06:44:12;101116.88;;;13.31;68.29
45813;BME280;31519;45.408;10.962;2023-03-19T06:46:40;101116.94;;;13.40;68.00
45813;BME280;31519;45.408;10.962;2023-03-19T06:49:07;101126.97;;;13.34;67.76
45813;BME280;31519;45.408;10.962;2023-03-19T06:51:35;101128.00;;;13.24;68.01
45813;BME280;31519;45.408;10.962;2023-03-19T06:54:03;101124.00;;;13.36;67.50
45813;BME280;31519;45.408;10.962;2023-03-19T06:56:34;101126.47;;;13.63;66.45
45813;BME280;31519;45.408;10.962;2023-03-19T06:59:02;101124.63;;;13.72;66.04
45813;BME280;31519;45.408;10.962;2023-03-19T07:01:30;101129.31;;;13.66;66.31
45813;BME280;31519;45.408;10.962;2023-03-19T07:03:57;101134.94;;;13.87;65.44
45813;BME280;31519;45.408;10.962;2023-03-19T07:06:26;101134.47;;;13.94;65.44
45813;BME280;31519;45.408;10.962;2023-03-19T07:08:54;101133.31;;;13.77;66.27
45813;BME280;31519;45.408;10.962;2023-03-19T07:11:22;101131.53;;;14.12;64.92
45813;BME280;31519;45.408;10.962;2023-03-19T07:13:50;101129.84;;;14.25;64.01
45813;BME280;31519;45.408;10.962;2023-03-19T07:16:18;101133.47;;;14.20;64.41
45813;BME280;31519;45.408;10.962;2023-03-19T07:23:17;101128.72;;;14.26;64.41
45813;BME280;31519;45.408;10.962;2023-03-19T07:25:46;101129.88;;;14.42;64.10
45813;BME280;31519;45.408;10.962;2023-03-19T07:28:14;101136.06;;;14.69;63.30
45813;BME280;31519;45.408;10.962;2023-03-19T07:30:42;101147.88;;;14.59;63.90
45813;BME280;31519;45.408;10.962;2023-03-19T07:33:10;101141.56;;;14.46;64.32
45813;BME280;31519;45.408;10.962;2023-03-19T07:35:38;101152.13;;;14.60;64.53
45813;BME280;31519;45.408;10.962;2023-03-19T07:38:06;101154.97;;;14.81;64.26
45813;BME280;31519;45.408;10.962;2023-03-19T07:40:34;101156.72;;;15.02;63.78
45813;BME280;31519;45.408;10.962;2023-03-19T07:43:02;101166.28;;;15.38;62.95
45813;BME280;31519;45.408;10.962;2023-03-19T07:45:31;101158.50;;;15.62;61.99
45813;BME280;31519;45.408;10.962;2023-03-19T07:47:59;101154.22;;;15.70;62.15
45813;BME280;31519;45.408;10.962;2023-03-19T07:50:31;101154.97;;;15.79;61.97
45813;BME280;31519;45.408;10.962;2023-03-19T07:52:59;101158.31;;;15.76;62.26
45813;BME280;31519;45.408;10.962;2023-03-19T07:55:27;101164.63;;;15.71;62.76
45813;BME280;31519;45.408;10.962;2023-03-19T07:57:55;101170.72;;;15.89;62.97
45813;BME280;31519;45.408;10.962;2023-03-19T08:00:23;101162.66;;;15.89;64.30
45813;BME280;31519;45.408;10.962;2023-03-19T08:02:51;101164.47;;;15.68;68.38
45813;BME280;31519;45.408;10.962;2023-03-19T08:05:19;101152.94;;;15.76;69.25
45813;BME280;31519;45.408;10.962;2023-03-19T08:07:47;101156.91;;;15.70;69.38
45813;BME280;31519;45.408;10.962;2023-03-19T08:10:16;101152.09;;;15.84;68.24
45813;BME280;31519;45.408;10.962;2023-03-19T08:12:44;101152.06;;;15.92;67.39
45813;BME280;31519;45.408;10.962;2023-03-19T08:15:12;101155.13;;;15.74;67.85
45813;BME280;31519;45.408;10.962;2023-03-19T08:17:40;101145.91;;;16.21;65.77
45813;BME280;31519;45.408;10.962;2023-03-19T08:20:11;101149.00;;;16.03;65.76
45813;BME280;31519;45.408;10.962;2023-03-19T08:22:39;101160.38;;;16.08;65.43
45813;BME280;31519;45.408;10.962;2023-03-19T08:25:09;101162.09;;;16.04;65.19
45813;BME280;31519;45.408;10.962;2023-03-19T08:27:37;101163.22;;;16.32;63.91
45813;BME280;31519;45.408;10.962;2023-03-19T08:30:05;101163.41;;;16.27;63.05
45813;BME280;31519;45.408;10.962;2023-03-19T08:32:34;101164.38;;;16.23;62.83
45813;BME280;31519;45.408;10.962;2023-03-19T08:35:03;101164.13;;;16.36;61.85
45813;BME280;31519;45.408;10.962;2023-03-19T08:37:31;101163.88;;;16.50;60.51
45813;BME280;31519;45.408;10.962;2023-03-19T08:39:59;101167.78;;;16.32;61.21
45813;BME280;31519;45.408;10.962;2023-03-19T08:42:27;101165.75;;;16.08;62.16
45813;BME280;31519;45.408;10.962;2023-03-19T08:44:55;101169.34;;;16.12;61.67
45813;BME280;31519;45.408;10.962;2023-03-19T08:47:23;101172.72;;;16.01;61.68
45813;BME280;31519;45.408;10.962;2023-03-19T08:49:51;101172.63;;;16.18;61.69
45813;BME280;31519;45.408;10.962;2023-03-19T08:52:19;101183.38;;;16.47;60.69
45813;BME280;31519;45.408;10.962;2023-03-19T08:54:48;101174.50;;;16.47;60.33
45813;BME280;31519;45.408;10.962;2023-03-19T08:57:15;101179.28;;;16.41;60.82
45813;BME280;31519;45.408;10.962;2023-03-19T08:59:44;101179.81;;;16.84;58.53
45813;BME280;31519;45.408;10.962;2023-03-19T09:02:12;101186.34;;;16.54;58.39
45813;BME280;31519;45.408;10.962;2023-03-19T09:04:40;101180.00;;;16.59;58.80
45813;BME280;31519;45.408;10.962;2023-03-19T09:07:09;101184.53;;;16.67;58.80
45813;BME280;31519;45.408;10.962;2023-03-19T09:09:42;101180.72;;;16.89;57.45
45813;BME280;31519;45.408;10.962;2023-03-19T09:12:11;101178.50;;;16.91;57.83
45813;BME280;31519;45.408;10.962;2023-03-19T09:14:40;101188.56;;;17.14;57.21
45813;BME280;31519;45.408;10.962;2023-03-19T09:17:08;101184.16;;;17.10;57.42
45813;BME280;31519;45.408;10.962;2023-03-19T09:19:37;101182.78;;;17.24;57.28
45813;BME280;31519;45.408;10.962;2023-03-19T09:22:04;101183.69;;;17.28;57.03
45813;BME280;31519;45.408;10.962;2023-03-19T09:24:32;101188.06;;;17.33;55.84
45813;BME280;31519;45.408;10.962;2023-03-19T09:27:00;101195.09;;;16.93;56.29
45813;BME280;31519;45.408;10.962;2023-03-19T09:29:28;101198.31;;;17.07;55.56
45813;BME280;31519;45.408;10.962;2023-03-19T09:31:56;101194.78;;;16.94;57.21
45813;BME280;31519;45.408;10.962;2023-03-19T09:34:24;101192.50;;;17.17;56.62
45813;BME280;31519;45.408;10.962;2023-03-19T09:36:52;101193.59;;;17.04;56.46
45813;BME280;31519;45.408;10.962;2023-03-19T09:39:19;101198.13;;;16.70;54.86
45813;BME280;31519;45.408;10.962;2023-03-19T09:44:27;101201.31;;;17.38;54.52
45813;BME280;31519;45.408;10.962;2023-03-19T09:49:31;101197.59;;;16.98;56.84
45813;BME280;31519;45.408;10.962;2023-03-19T09:52:08;101199.69;;;17.13;56.43
45813;BME280;31519;45.408;10.962;2023-03-19T09:54:43;101195.19;;;16.63;57.84
45813;BME280;31519;45.408;10.962;2023-03-19T09:57:12;101198.25;;;16.95;57.93
45813;BME280;31519;45.408;10.962;2023-03-19T09:59:41;101203.38;;;17.08;57.66
45813;BME280;31519;45.408;10.962;2023-03-19T10:02:23;101201.34;;;16.84;56.36
45813;BME280;31519;45.408;10.962;2023-03-19T10:07:32;101194.81;;;16.65;57.88
45813;BME280;31519;45.408;10.962;2023-03-19T10:15:27;101190.03;;;17.45;56.01
45813;BME280;31519;45.408;10.962;2023-03-19T10:17:59;101182.47;;;18.20;52.63
45813;BME280;31519;45.408;10.962;2023-03-19T10:23:09;101192.03;;;18.93;49.10
45813;BME280;31519;45.408;10.962;2023-03-19T10:25:40;101188.53;;;17.80;51.38
45813;BME280;31519;45.408;10.962;2023-03-19T10:28:14;101194.16;;;18.36;50.99
45813;BME280;31519;45.408;10.962;2023-03-19T10:30:44;101181.50;;;18.00;49.17
45813;BME280;31519;45.408;10.962;2023-03-19T10:33:23;101184.72;;;18.54;45.11
45813;BME280;31519;45.408;10.962;2023-03-19T10:36:01;101180.06;;;18.79;47.08
45813;BME280;31519;45.408;10.962;2023-03-19T10:38:30;101181.72;;;18.83;44.94
45813;BME280;31519;45.408;10.962;2023-03-19T10:43:50;101170.66;;;19.16;45.94
45813;BME280;31519;45.408;10.962;2023-03-19T10:46:19;101165.38;;;18.64;47.87
45813;BME280;31519;45.408;10.962;2023-03-19T10:48:48;101162.28;;;19.06;47.02
45813;BME280;31519;45.408;10.962;2023-03-19T10:51:17;101169.28;;;19.22;45.72
45813;BME280;31519;45.408;10.962;2023-03-19T10:53:47;101160.31;;;20.44;44.18
45813;BME280;31519;45.408;10.962;2023-03-19T10:58:54;101168.94;;;19.83;42.13
45813;BME280;31519;45.408;10.962;2023-03-19T11:01:25;101161.25;;;20.16;42.55
45813;BME280;31519;45.408;10.962;2023-03-19T11:03:57;101153.97;;;20.55;42.18
45813;BME280;31519;45.408;10.962;2023-03-19T11:06:35;101158.72;;;19.92;42.19
45813;BME280;31519;45.408;10.962;2023-03-19T11:09:13;101150.28;;;21.02;41.45
45813;BME280;31519;45.408;10.962;2023-03-19T11:11:49;101145.13;;;21.58;39.71
45813;BME280;31519;45.408;10.962;2023-03-19T11:14:21;101152.03;;;21.55;39.62
45813;BME280;31519;45.408;10.962;2023-03-19T11:19:41;101143.91;;;21.33;38.89
45813;BME280;31519;45.408;10.962;2023-03-19T11:22:16;101135.59;;;20.45;40.66
45813;BME280;31519;45.408;10.962;2023-03-19T11:24:51;101133.09;;;19.86;41.90
45813;BME280;31519;45.408;10.962;2023-03-19T11:27:25;101127.72;;;20.56;40.75
45813;BME280;31519;45.408;10.962;2023-03-19T11:29:54;101136.31;;;21.00;39.33
45813;BME280;31519;45.408;10.962;2023-03-19T11:34:57;101126.34;;;20.85;39.08
45813;BME280;31519;45.408;10.962;2023-03-19T11:37:32;101121.97;;;20.99;38.66
45813;BME280;31519;45.408;10.962;2023-03-19T11:40:45;101118.38;;;20.34;39.67
45813;BME280;31519;45.408;10.962;2023-03-19T11:46:19;101111.41;;;23.01;36.04
45813;BME280;31519;45.408;10.962;2023-03-19T11:53:49;101092.81;;;22.06;36.42
45813;BME280;31519;45.408;10.962;2023-03-19T11:59:01;101084.75;;;23.54;34.84
45813;BME280;31519;45.408;10.962;2023-03-19T12:01:53;101080.50;;;22.46;35.38
45813;BME280;31519;45.408;10.962;2023-03-19T12:20:30;101065.22;;;20.84;37.17
45813;BME280;31519;45.408;10.962;2023-03-19T12:25:15;101060.25;;;19.93;38.53
45813;BME280;31519;45.408;10.962;2023-03-19T12:30:40;101062.88;;;20.63;37.65
45813;BME280;31519;45.408;10.962;2023-03-19T12:33:13;101051.84;;;19.79;38.86
45813;BME280;31519;45.408;10.962;2023-03-19T12:35:44;101050.81;;;20.03;38.82
45813;BME280;31519;45.408;10.962;2023-03-19T12:38:16;101051.84;;;20.52;38.10
45813;BME280;31519;45.408;10.962;2023-03-19T12:40:52;101059.31;;;19.85;40.50
45813;BME280;31519;45.408;10.962;2023-03-19T12:43:24;101053.69;;;19.43;41.30
45813;BME280;31519;45.408;10.962;2023-03-19T12:46:06;101048.34;;;19.16;42.13
45813;BME280;31519;45.408;10.962;2023-03-19T12:48:43;101059.31;;;19.07;42.06
45813;BME280;31519;45.408;10.962;2023-03-19T12:51:14;101051.75;;;19.13;41.73
45813;BME280;31519;45.408;10.962;2023-03-19T12:56:14;101038.06;;;19.68;41.07
45813;BME280;31519;45.408;10.962;2023-03-19T12:58:52;101032.47;;;20.31;39.83
45813;BME280;31519;45.408;10.962;2023-03-19T13:01:28;101032.28;;;20.82;38.61
45813;BME280;31519;45.408;10.962;2023-03-19T13:04:45;101027.16;;;21.45;37.45
45813;BME280;31519;45.408;10.962;2023-03-19T13:09:15;101032.44;;;21.60;37.69
45813;BME280;31519;45.408;10.962;2023-03-19T13:11:51;101020.09;;;21.14;39.50
45813;BME280;31519;45.408;10.962;2023-03-19T13:19:45;101016.91;;;22.14;37.99
45813;BME280;31519;45.408;10.962;2023-03-19T13:22:16;101013.09;;;21.88;37.50
45813;BME280;31519;45.408;10.962;2023-03-19T13:24:46;101009.84;;;21.27;37.55
45813;BME280;31519;45.408;10.962;2023-03-19T13:27:20;101007.31;;;20.92;37.72
45813;BME280;31519;45.408;10.962;2023-03-19T13:35:12;101006.13;;;21.91;37.43
45813;BME280;31519;45.408;10.962;2023-03-19T13:37:44;101004.16;;;22.51;36.33
45813;BME280;31519;45.408;10.962;2023-03-19T13:43:01;101010.38;;;20.90;37.20
45813;BME280;31519;45.408;10.962;2023-03-19T13:45:36;101010.31;;;21.09;37.05
45813;BME280;31519;45.408;10.962;2023-03-19T13:48:32;101009.03;;;20.58;37.45
45813;BME280;31519;45.408;10.962;2023-03-19T13:56:07;100995.41;;;20.96;36.01
45813;BME280;31519;45.408;10.962;2023-03-19T14:01:42;100995.06;;;21.47;36.16
45813;BME280;31519;45.408;10.962;2023-03-19T14:04:16;100987.88;;;21.32;36.43
45813;BME280;31519;45.408;10.962;2023-03-19T14:06:49;100986.38;;;20.66;37.98
45813;BME280;31519;45.408;10.962;2023-03-19T14:09:29;100988.97;;;21.27;37.10
45813;BME280;31519;45.408;10.962;2023-03-19T14:15:02;100981.50;;;21.47;37.02
45813;BME280;31519;45.408;10.962;2023-03-19T14:28:21;100974.13;;;19.57;41.25
45813;BME280;31519;45.408;10.962;2023-03-19T14:30:50;100974.38;;;19.86;40.40
45813;BME280;31519;45.408;10.962;2023-03-19T14:33:22;100970.28;;;19.77;40.52
45813;BME280;31519;45.408;10.962;2023-03-19T14:35:52;100973.94;;;19.50;40.95
45813;BME280;31519;45.408;10.962;2023-03-19T14:39:07;100968.13;;;19.32;40.57
45813;BME280;31519;45.408;10.962;2023-03-19T14:41:10;100961.03;;;19.59;40.76
45813;BME280;31519;45.408;10.962;2023-03-19T14:56:47;100965.72;;;19.62;41.59
45813;BME280;31519;45.408;10.962;2023-03-19T14:59:17;100967.41;;;19.35;41.98